createdAt,value
2018-08-04T00:07:08.329Z,0
2018-08-04T00:17:23.138Z,0
2018-08-04T00:27:37.455Z,0
2018-08-04T00:37:52.209Z,0
2018-08-04T00:48:05.960Z,0
2018-08-04T00:58:20.588Z,0
2018-08-04T01:08:35.396Z,0
2018-08-04T01:18:50.097Z,0
2018-08-04T01:29:05.453Z,0
2018-08-04T01:39:19.954Z,0
2018-08-04T01:49:34.742Z,0
2018-08-04T01:59:50.294Z,0
2018-08-04T02:10:05.733Z,0
2018-08-04T02:20:20.646Z,0
2018-08-04T02:30:33.887Z,0
2018-08-04T02:40:49.495Z,0
2018-08-04T02:51:04.566Z,0
2018-08-04T03:01:18.343Z,0
2018-08-04T03:11:33.945Z,0
2018-08-04T03:21:48.055Z,8
2018-08-04T03:32:02.555Z,28
2018-08-04T03:42:17.777Z,92
2018-08-04T03:52:33.129Z,300
2018-08-04T04:02:47.528Z,480
2018-08-04T04:13:02.759Z,888
2018-08-04T04:23:17.958Z,1344
2018-08-04T04:33:32.758Z,1952
2018-08-04T04:43:48.231Z,2988
2018-08-04T04:54:02.979Z,4128
2018-08-04T05:04:17.166Z,4940
2018-08-04T05:14:32.065Z,5816
2018-08-04T05:24:47.467Z,7324
2018-08-04T05:35:03.056Z,8852
2018-08-04T05:45:17.865Z,8420
2018-08-04T05:55:33.225Z,9180
2018-08-04T06:05:48.719Z,9756
2018-08-04T06:16:02.561Z,13200
2018-08-04T06:26:16.489Z,17696
2018-08-04T06:36:31.973Z,21952
2018-08-04T06:46:46.327Z,19584
2018-08-04T06:57:00.710Z,18976
2018-08-04T07:07:15.047Z,21536
2018-08-04T07:17:30.427Z,29792
2018-08-04T07:27:45.165Z,37632
2018-08-04T07:38:00.751Z,24832
2018-08-04T07:48:16.477Z,32512
2018-08-04T07:58:32.040Z,44864
2018-08-04T08:08:46.441Z,48416
2018-08-04T08:19:02.044Z,56064
2018-08-04T08:29:16.428Z,56896
2018-08-04T08:39:30.816Z,64448
2018-08-04T08:49:46.099Z,69248
2018-08-04T09:00:00.031Z,73280
2018-08-04T09:10:14.653Z,75872
2018-08-04T09:20:29.266Z,72064
2018-08-04T09:30:43.416Z,72544
2018-08-04T09:40:58.383Z,79200
2018-08-04T09:51:13.433Z,79264
2018-08-04T10:01:28.742Z,79648
2018-08-04T10:11:44.628Z,85600
2018-08-04T10:21:59.690Z,86368
2018-08-04T10:32:13.608Z,90496
2018-08-04T10:42:28.759Z,98144
2018-08-04T10:52:44.710Z,95648
2018-08-04T11:02:58.656Z,92864
2018-08-04T11:13:14.305Z,91328
2018-08-04T11:23:28.418Z,98752
2018-08-04T11:33:42.781Z,88480
2018-08-04T11:43:58.449Z,93568
2018-08-04T11:54:13.695Z,91520
2018-08-04T12:04:28.658Z,89664
2018-08-04T12:14:44.448Z,90336
2018-08-04T12:24:58.812Z,93408
2018-08-04T12:35:14.905Z,95872
2018-08-04T12:45:29.782Z,97792
2018-08-04T12:55:45.620Z,92480
2018-08-04T13:05:59.857Z,101056
2018-08-04T13:16:15.204Z,18824
2018-08-04T13:26:30.597Z,91520
2018-08-04T13:36:45.348Z,94752
2018-08-04T13:47:00.566Z,89248
2018-08-04T13:57:14.938Z,94592
2018-08-04T14:07:29.136Z,87904
2018-08-04T14:17:43.722Z,91360
2018-08-04T14:27:59.082Z,86144
2018-08-04T14:38:14.844Z,82208
2018-08-04T14:48:29.091Z,65472
2018-08-04T14:58:44.828Z,76448
2018-08-04T15:08:59.743Z,57600
2018-08-04T15:19:14.299Z,43648
2018-08-04T15:29:28.239Z,18784
2018-08-04T15:39:43.367Z,47968
2018-08-04T15:49:58.262Z,32512
2018-08-04T16:00:13.082Z,26048
2018-08-04T16:10:27.145Z,17824
2018-08-04T16:20:41.341Z,27712
2018-08-04T16:30:57.208Z,25568
2018-08-04T16:41:11.548Z,22528
2018-08-04T16:51:26.485Z,13916
2018-08-04T17:01:40.269Z,11676
2018-08-04T17:11:55.987Z,22720
2018-08-04T17:22:10.889Z,25376
2018-08-04T17:32:25.798Z,15808
2018-08-04T17:42:41.826Z,11224
2018-08-04T17:52:56.727Z,11644
2018-08-04T18:03:12.113Z,8056
2018-08-04T18:13:26.352Z,5864
2018-08-04T18:23:41.005Z,4792
2018-08-04T18:33:56.475Z,3412
2018-08-04T18:44:11.720Z,2544
2018-08-04T18:54:26.963Z,1476
2018-08-04T19:04:42.320Z,768
2018-08-04T19:14:57.133Z,344
2018-08-04T19:25:11.731Z,124
2018-08-04T19:35:27.483Z,36
2018-08-04T19:45:43.242Z,8
2018-08-04T19:55:56.983Z,0
2018-08-04T20:06:11.635Z,0
2018-08-04T20:16:27.023Z,0
2018-08-04T20:26:41.703Z,0
2018-08-04T20:36:56.012Z,0
2018-08-04T20:47:11.440Z,0
2018-08-04T20:57:26.660Z,0
2018-08-04T21:07:40.994Z,0
2018-08-04T21:17:55.859Z,0
2018-08-04T21:28:10.459Z,0
2018-08-04T21:38:25.482Z,0
2018-08-04T21:48:39.485Z,0
2018-08-04T21:58:53.991Z,0
2018-08-04T22:09:08.975Z,0
2018-08-04T22:19:24.182Z,0
2018-08-04T22:29:38.916Z,0
2018-08-04T22:39:54.169Z,0
2018-08-04T22:50:08.801Z,0
2018-08-04T23:00:24.485Z,0
2018-08-04T23:10:39.093Z,0
2018-08-04T23:20:53.615Z,0
2018-08-04T23:31:08.784Z,0
2018-08-04T23:41:23.585Z,0
2018-08-04T23:51:38.675Z,0
